createdAt,value
2018-07-31T00:00:23.178Z,0.00
2018-07-31T00:04:26.405Z,0.00
2018-07-31T00:08:29.717Z,0.00
2018-07-31T00:12:32.943Z,0.00
2018-07-31T00:16:36.199Z,0.00
2018-07-31T00:20:39.449Z,0.00
2018-07-31T00:24:42.693Z,0.00
2018-07-31T00:28:46.673Z,0.00
2018-07-31T00:41:43.249Z,0.10
2018-07-31T00:45:46.531Z,0.00
2018-07-31T00:49:49.753Z,0.00
2018-07-31T00:53:52.972Z,0.00
2018-07-31T00:57:56.351Z,0.00
2018-07-31T01:01:59.588Z,0.00
2018-07-31T01:06:02.858Z,0.10
2018-07-31T01:10:06.088Z,0.00
2018-07-31T01:14:09.982Z,0.00
2018-07-31T01:18:13.200Z,0.00
2018-07-31T01:22:16.476Z,0.10
2018-07-31T01:26:19.707Z,0.00
2018-07-31T01:30:22.994Z,0.00
2018-07-31T01:34:26.237Z,0.00
2018-07-31T01:38:29.489Z,0.00
2018-07-31T01:42:32.749Z,0.00
2018-07-31T01:46:36.038Z,0.00
2018-07-31T01:50:39.312Z,0.00
2018-07-31T01:54:42.993Z,0.00
2018-07-31T01:58:46.241Z,0.00
2018-07-31T02:02:49.465Z,0.00
2018-07-31T02:06:53.644Z,0.00
2018-07-31T02:10:56.874Z,0.00
2018-07-31T02:15:00.133Z,0.00
2018-07-31T02:19:03.381Z,0.00
2018-07-31T02:23:06.611Z,0.00
2018-07-31T02:27:09.933Z,0.00
2018-07-31T02:31:13.189Z,0.00
2018-07-31T02:35:16.533Z,0.00
2018-07-31T02:43:45.925Z,0.00
2018-07-31T02:47:49.181Z,0.10
2018-07-31T02:51:52.461Z,0.00
2018-07-31T02:55:55.783Z,0.00
2018-07-31T03:00:08.573Z,0.00
2018-07-31T03:04:11.805Z,0.00
2018-07-31T03:08:15.720Z,0.00
2018-07-31T03:12:18.878Z,0.00
2018-07-31T03:16:22.124Z,0.00
2018-07-31T03:20:26.301Z,0.00
2018-07-31T03:24:29.565Z,0.00
2018-07-31T03:28:32.813Z,0.00
2018-07-31T03:32:37.253Z,0.00
2018-07-31T03:36:40.562Z,0.10
2018-07-31T03:40:43.826Z,0.00
2018-07-31T03:53:41.614Z,0.00
2018-07-31T03:57:44.868Z,0.20
2018-07-31T04:01:48.124Z,0.00
2018-07-31T04:10:17.674Z,0.07
2018-07-31T04:14:24.050Z,0.00
2018-07-31T04:18:27.335Z,0.00
2018-07-31T04:22:30.597Z,0.10
2018-07-31T04:26:33.871Z,0.00
2018-07-31T04:30:37.108Z,0.00
2018-07-31T04:34:40.360Z,0.00
2018-07-31T04:38:43.686Z,0.00
2018-07-31T04:42:46.928Z,0.00
2018-07-31T04:46:50.179Z,0.00
2018-07-31T04:50:53.426Z,0.00
2018-07-31T04:54:56.755Z,0.00
2018-07-31T04:59:00.005Z,0.40
2018-07-31T05:03:03.280Z,0.00
2018-07-31T05:07:06.601Z,0.00
2018-07-31T05:11:09.898Z,0.00
2018-07-31T05:15:13.200Z,0.00
2018-07-31T05:19:16.454Z,0.00
2018-07-31T05:23:19.764Z,0.10
2018-07-31T05:27:23.044Z,0.00
2018-07-31T05:31:26.296Z,0.00
2018-07-31T05:35:29.610Z,0.00
2018-07-31T05:39:32.957Z,0.00
2018-07-31T05:43:36.181Z,1.10
2018-07-31T05:47:39.459Z,0.30
2018-07-31T05:51:42.743Z,0.03
2018-07-31T05:55:46.050Z,0.43
2018-07-31T05:59:49.306Z,0.10
2018-07-31T06:03:52.567Z,2.17
2018-07-31T06:07:55.806Z,0.00
2018-07-31T06:11:59.126Z,0.00
2018-07-31T06:16:02.393Z,0.62
2018-07-31T06:20:10.984Z,0.70
2018-07-31T06:24:14.234Z,0.20
2018-07-31T06:28:17.474Z,0.00
2018-07-31T06:32:20.819Z,0.00
2018-07-31T06:36:24.156Z,0.10
2018-07-31T06:40:27.472Z,0.35
2018-07-31T06:44:30.694Z,0.75
2018-07-31T06:48:33.947Z,0.53
2018-07-31T06:52:37.194Z,0.45
2018-07-31T06:56:40.461Z,0.00
2018-07-31T07:00:43.706Z,0.47
2018-07-31T07:04:46.984Z,0.00
2018-07-31T07:08:49.959Z,0.03
2018-07-31T07:12:53.218Z,0.20
2018-07-31T07:16:56.462Z,4.67
2018-07-31T07:20:59.720Z,0.98
2018-07-31T07:25:02.993Z,0.10
2018-07-31T07:29:06.280Z,0.00
2018-07-31T07:33:09.575Z,0.00
2018-07-31T07:37:12.863Z,0.00
2018-07-31T07:41:16.115Z,0.00
2018-07-31T07:45:19.452Z,0.00
2018-07-31T07:49:22.751Z,0.20
2018-07-31T07:53:25.958Z,0.10
2018-07-31T07:57:29.245Z,0.10
2018-07-31T08:01:32.530Z,6.55
2018-07-31T08:05:35.796Z,0.00
2018-07-31T08:09:39.055Z,0.00
2018-07-31T08:13:42.294Z,0.37
2018-07-31T08:17:45.586Z,0.00
2018-07-31T08:21:48.843Z,0.40
2018-07-31T08:25:52.087Z,7.20
2018-07-31T08:29:55.358Z,5.70
2018-07-31T08:33:58.679Z,9.05
2018-07-31T08:38:01.934Z,4.80
2018-07-31T08:42:05.249Z,5.53
2018-07-31T08:46:08.524Z,6.17
2018-07-31T08:50:11.795Z,8.28
2018-07-31T08:54:15.089Z,7.47
2018-07-31T08:58:18.367Z,9.00
2018-07-31T09:02:21.645Z,9.25
2018-07-31T09:06:24.916Z,7.47
2018-07-31T09:10:28.234Z,11.08
2018-07-31T09:14:31.483Z,14.20
2018-07-31T09:18:35.151Z,7.78
2018-07-31T09:22:38.409Z,5.92
2018-07-31T09:26:41.674Z,4.55
2018-07-31T09:30:50.474Z,5.47
2018-07-31T09:34:53.625Z,5.60
2018-07-31T09:38:56.905Z,5.72
2018-07-31T09:43:00.189Z,7.10
2018-07-31T09:47:03.542Z,6.65
2018-07-31T09:51:06.842Z,11.48
2018-07-31T09:55:10.162Z,10.10
2018-07-31T09:59:13.492Z,6.45
2018-07-31T10:03:16.729Z,5.03
2018-07-31T10:07:19.987Z,4.72
2018-07-31T10:11:23.255Z,5.90
2018-07-31T10:15:26.502Z,5.22
2018-07-31T10:19:29.763Z,8.73
2018-07-31T10:23:33.029Z,3.45
2018-07-31T10:27:36.336Z,4.85
2018-07-31T10:31:39.582Z,4.75
2018-07-31T10:35:42.838Z,6.15
2018-07-31T10:39:46.110Z,3.15
2018-07-31T10:43:49.426Z,4.25
2018-07-31T10:47:52.669Z,8.00
2018-07-31T10:51:55.927Z,3.67
2018-07-31T10:55:59.230Z,3.87
2018-07-31T11:00:02.555Z,4.00
2018-07-31T11:04:05.994Z,5.37
2018-07-31T11:08:09.165Z,5.10
2018-07-31T11:12:12.417Z,6.05
2018-07-31T11:16:15.661Z,5.12
2018-07-31T11:20:18.900Z,3.02
2018-07-31T11:24:22.148Z,3.33
2018-07-31T11:28:25.388Z,5.28
2018-07-31T11:32:28.641Z,5.60
2018-07-31T11:36:31.981Z,4.20
2018-07-31T11:40:35.202Z,4.55
2018-07-31T11:44:38.442Z,5.55
2018-07-31T11:48:41.738Z,8.88
2018-07-31T11:52:44.977Z,3.80
2018-07-31T11:56:48.256Z,2.87
2018-07-31T12:00:51.525Z,4.90
2018-07-31T12:04:54.753Z,4.90
2018-07-31T12:08:58.040Z,6.58
2018-07-31T12:13:01.270Z,3.00
2018-07-31T12:17:04.537Z,7.20
2018-07-31T12:21:07.801Z,4.65
2018-07-31T12:25:11.070Z,5.40
2018-07-31T12:29:14.374Z,4.92
2018-07-31T12:38:04.059Z,4.05
2018-07-31T12:42:07.351Z,12.45
2018-07-31T12:46:10.585Z,5.20
2018-07-31T12:50:13.911Z,4.25
2018-07-31T12:54:17.128Z,5.17
2018-07-31T12:58:20.409Z,3.60
2018-07-31T13:02:23.734Z,2.05
2018-07-31T13:06:26.972Z,4.75
2018-07-31T13:10:30.245Z,4.67
2018-07-31T13:14:33.524Z,3.00
2018-07-31T13:18:36.812Z,7.50
2018-07-31T13:22:40.104Z,3.00
2018-07-31T13:26:43.379Z,5.58
2018-07-31T13:30:46.623Z,3.95
2018-07-31T13:34:49.849Z,4.12
2018-07-31T13:38:53.229Z,2.40
2018-07-31T13:42:56.465Z,5.28
2018-07-31T13:46:59.772Z,3.22
2018-07-31T13:51:03.017Z,2.27
2018-07-31T13:55:06.394Z,5.12
2018-07-31T13:59:09.603Z,7.28
2018-07-31T14:03:12.844Z,7.65
2018-07-31T14:07:16.101Z,4.22
2018-07-31T14:11:20.172Z,6.92
2018-07-31T14:15:23.419Z,3.05
2018-07-31T14:19:26.679Z,4.97
2018-07-31T14:23:29.940Z,3.65
2018-07-31T14:27:33.185Z,6.80
2018-07-31T14:31:37.318Z,6.97
2018-07-31T14:35:40.572Z,5.65
2018-07-31T14:39:43.817Z,4.42
2018-07-31T14:43:46.801Z,5.45
2018-07-31T14:47:49.780Z,8.28
2018-07-31T14:56:19.333Z,4.40
2018-07-31T15:04:47.993Z,6.62
2018-07-31T15:08:51.240Z,4.35
2018-07-31T15:12:54.464Z,5.15
2018-07-31T15:16:57.728Z,7.62
2018-07-31T15:21:01.076Z,2.65
2018-07-31T15:25:04.638Z,3.33
2018-07-31T15:29:07.885Z,3.00
2018-07-31T15:33:11.161Z,3.98
2018-07-31T15:37:14.405Z,2.05
2018-07-31T15:41:17.656Z,4.62
2018-07-31T15:45:20.953Z,4.42
2018-07-31T15:49:24.196Z,2.70
2018-07-31T15:53:27.445Z,3.33
2018-07-31T15:57:30.661Z,5.20
2018-07-31T16:01:33.908Z,3.67
2018-07-31T16:05:37.871Z,5.80
2018-07-31T16:09:42.164Z,1.37
2018-07-31T16:13:45.394Z,3.72
2018-07-31T16:17:48.684Z,2.72
2018-07-31T16:21:51.969Z,1.90
2018-07-31T16:25:55.409Z,4.08
2018-07-31T16:29:58.643Z,2.75
2018-07-31T16:34:01.986Z,4.47
2018-07-31T16:38:05.153Z,1.30
2018-07-31T16:42:08.550Z,3.17
2018-07-31T16:46:11.814Z,3.40
2018-07-31T16:50:15.041Z,2.15
2018-07-31T16:54:18.262Z,4.33
2018-07-31T16:58:21.514Z,4.33
2018-07-31T17:02:24.816Z,2.47
2018-07-31T17:06:28.052Z,2.02
2018-07-31T17:10:31.328Z,1.60
2018-07-31T17:14:34.544Z,4.80
2018-07-31T17:18:37.796Z,1.65
2018-07-31T17:22:41.101Z,2.47
2018-07-31T17:26:44.370Z,0.90
2018-07-31T17:30:47.593Z,1.95
2018-07-31T17:34:50.922Z,2.55
2018-07-31T17:38:54.453Z,2.90
2018-07-31T17:42:57.685Z,1.37
2018-07-31T17:47:00.937Z,2.50
2018-07-31T17:51:04.255Z,1.20
2018-07-31T17:55:07.817Z,1.00
2018-07-31T17:59:11.061Z,3.05
2018-07-31T18:03:14.280Z,2.33
2018-07-31T18:07:17.896Z,3.40
2018-07-31T18:11:21.421Z,5.60
2018-07-31T18:15:24.653Z,2.52
2018-07-31T18:19:27.880Z,2.17
2018-07-31T18:23:31.165Z,1.98
2018-07-31T18:27:34.405Z,1.17
2018-07-31T18:31:38.069Z,2.67
2018-07-31T18:35:41.985Z,1.67
2018-07-31T18:39:45.224Z,1.15
2018-07-31T18:43:48.876Z,1.40
2018-07-31T18:47:52.429Z,4.17
2018-07-31T18:51:55.682Z,2.75
2018-07-31T18:55:59.041Z,3.25
2018-07-31T19:00:02.423Z,2.47
2018-07-31T19:04:06.053Z,3.60
2018-07-31T19:08:09.314Z,1.70
2018-07-31T19:12:12.581Z,2.30
2018-07-31T19:16:15.837Z,5.08
2018-07-31T19:20:19.216Z,2.42
2018-07-31T19:24:22.665Z,3.33
2018-07-31T19:28:26.083Z,2.77
2018-07-31T19:32:29.666Z,1.70
2018-07-31T19:36:32.973Z,3.50
2018-07-31T19:40:36.380Z,6.05
2018-07-31T19:44:39.847Z,3.33
2018-07-31T19:48:43.220Z,3.95
2018-07-31T19:52:53.132Z,4.40
2018-07-31T19:56:59.511Z,5.58
2018-07-31T20:01:03.459Z,4.37
2018-07-31T20:05:07.486Z,4.87
2018-07-31T20:09:15.305Z,6.47
2018-07-31T20:13:18.774Z,4.72
2018-07-31T20:17:22.014Z,4.75
2018-07-31T20:21:27.558Z,0.10
2018-07-31T20:25:32.028Z,0.70
2018-07-31T20:29:35.877Z,0.15
2018-07-31T20:33:39.173Z,0.00
2018-07-31T20:37:46.492Z,0.20
2018-07-31T20:41:52.005Z,0.00
2018-07-31T20:45:58.305Z,0.50
2018-07-31T20:50:03.340Z,0.20
2018-07-31T20:54:08.520Z,5.58
2018-07-31T20:58:14.428Z,0.08
2018-07-31T21:02:20.839Z,0.10
